sensor_id;sensor_type;location;lat;lon;timestamp;pressure;altitude;pressure_sealevel;temperature;humidity
11413;BME280;5762;43.256;26.960;2023-04-27T00:00:27;99424.08;;;9.86;100.00
11413;BME280;5762;43.256;26.960;2023-04-27T00:02:56;99429.63;;;9.79;100.00
11413;BME280;5762;43.256;26.960;2023-04-27T00:05:24;99430.77;;;9.75;100.00
11413;BME280;5762;43.256;26.960;2023-04-27T00:07:53;99445.94;;;9.73;100.00
11413;BME280;5762;43.256;26.960;2023-04-27T00:10:22;99435.80;;;9.68;100.00
11413;BME280;5762;43.256;26.960;2023-04-27T00:12:51;99445.14;;;9.59;100.00
11413;BME280;5762;43.256;26.960;2023-04-27T00:15:20;99444.34;;;9.59;100.00
11413;BME280;5762;43.256;26.960;2023-04-27T00:17:49;99449.80;;;9.56;100.00
11413;BME280;5762;43.256;26.960;2023-04-27T00:20:18;99449.54;;;9.55;100.00
11413;BME280;5762;43.256;26.960;2023-04-27T00:27:58;99464.57;;;9.45;100.00
11413;BME280;5762;43.256;26.960;2023-04-27T00:30:27;99465.20;;;9.39;100.00
11413;BME280;5762;43.256;26.960;2023-04-27T00:32:56;99460.22;;;9.47;100.00
11413;BME280;5762;43.256;26.960;2023-04-27T00:35:24;99453.98;;;9.49;100.00
11413;BME280;5762;43.256;26.960;2023-04-27T00:37:53;99453.47;;;9.47;100.00
11413;BME280;5762;43.256;26.960;2023-04-27T00:40:21;99442.12;;;9.47;100.00
11413;BME280;5762;43.256;26.960;2023-04-27T00:42:50;99439.16;;;9.46;100.00
11413;BME280;5762;43.256;26.960;2023-04-27T00:45:21;99439.92;;;9.49;100.00
11413;BME280;5762;43.256;26.960;2023-04-27T00:47:50;99434.56;;;9.47;100.00
11413;BME280;5762;43.256;26.960;2023-04-27T00:50:20;99442.16;;;9.45;100.00
11413;BME280;5762;43.256;26.960;2023-04-27T00:52:49;99438.41;;;9.43;100.00
11413;BME280;5762;43.256;26.960;2023-04-27T00:55:17;99437.22;;;9.49;100.00
11413;BME280;5762;43.256;26.960;2023-04-27T00:57:47;99430.09;;;9.39;100.00
11413;BME280;5762;43.256;26.960;2023-04-27T01:00:15;99427.00;;;9.46;100.00
11413;BME280;5762;43.256;26.960;2023-04-27T01:02:44;99429.16;;;9.33;100.00
11413;BME280;5762;43.256;26.960;2023-04-27T01:05:13;99432.91;;;9.34;100.00
11413;BME280;5762;43.256;26.960;2023-04-27T01:07:41;99420.59;;;9.28;100.00
11413;BME280;5762;43.256;26.960;2023-04-27T01:10:10;99430.21;;;9.34;100.00
11413;BME280;5762;43.256;26.960;2023-04-27T01:12:38;99428.19;;;9.26;100.00
11413;BME280;5762;43.256;26.960;2023-04-27T01:15:08;99423.93;;;9.23;100.00
11413;BME280;5762;43.256;26.960;2023-04-27T01:17:37;99431.14;;;9.27;100.00
11413;BME280;5762;43.256;26.960;2023-04-27T01:20:06;99429.80;;;9.27;100.00
11413;BME280;5762;43.256;26.960;2023-04-27T01:22:38;99431.94;;;9.12;100.00
11413;BME280;5762;43.256;26.960;2023-04-27T01:25:07;99454.55;;;9.16;100.00
11413;BME280;5762;43.256;26.960;2023-04-27T01:27:35;99452.91;;;9.17;100.00
11413;BME280;5762;43.256;26.960;2023-04-27T01:30:04;99459.91;;;9.18;100.00
11413;BME280;5762;43.256;26.960;2023-04-27T01:32:35;99463.45;;;9.16;100.00
11413;BME280;5762;43.256;26.960;2023-04-27T01:35:04;99453.38;;;9.22;100.00
11413;BME280;5762;43.256;26.960;2023-04-27T01:37:33;99458.39;;;9.12;100.00
11413;BME280;5762;43.256;26.960;2023-04-27T01:40:03;99459.15;;;9.15;100.00
11413;BME280;5762;43.256;26.960;2023-04-27T01:42:32;99464.62;;;9.10;100.00
11413;BME280;5762;43.256;26.960;2023-04-27T01:45:00;99474.12;;;9.07;100.00
11413;BME280;5762;43.256;26.960;2023-04-27T01:47:29;99487.38;;;9.23;100.00
11413;BME280;5762;43.256;26.960;2023-04-27T01:49:58;99490.08;;;9.23;100.00
11413;BME280;5762;43.256;26.960;2023-04-27T01:52:26;99486.98;;;9.13;100.00
11413;BME280;5762;43.256;26.960;2023-04-27T01:54:54;99481.33;;;9.12;100.00
11413;BME280;5762;43.256;26.960;2023-04-27T01:57:23;99479.69;;;9.14;100.00
11413;BME280;5762;43.256;26.960;2023-04-27T01:59:52;99483.02;;;9.08;100.00
11413;BME280;5762;43.256;26.960;2023-04-27T02:02:21;99488.09;;;8.96;100.00
11413;BME280;5762;43.256;26.960;2023-04-27T02:04:50;99494.66;;;8.90;100.00
11413;BME280;5762;43.256;26.960;2023-04-27T02:07:18;99498.66;;;8.92;100.00
11413;BME280;5762;43.256;26.960;2023-04-27T02:09:47;99504.28;;;8.96;100.00
11413;BME280;5762;43.256;26.960;2023-04-27T02:12:15;99515.33;;;8.97;100.00
11413;BME280;5762;43.256;26.960;2023-04-27T02:14:43;99512.70;;;8.92;100.00
11413;BME280;5762;43.256;26.960;2023-04-27T02:17:12;99511.39;;;8.89;100.00
11413;BME280;5762;43.256;26.960;2023-04-27T02:19:42;99266.77;;;7.21;100.00
11413;BME280;5762;43.256;26.960;2023-04-27T02:22:10;99520.94;;;8.82;100.00
11413;BME280;5762;43.256;26.960;2023-04-27T02:24:39;99529.73;;;8.90;100.00
11413;BME280;5762;43.256;26.960;2023-04-27T02:27:07;99531.05;;;8.92;100.00
11413;BME280;5762;43.256;26.960;2023-04-27T02:29:36;99535.13;;;8.90;100.00
11413;BME280;5762;43.256;26.960;2023-04-27T02:32:05;99539.95;;;8.93;100.00
11413;BME280;5762;43.256;26.960;2023-04-27T02:34:33;99537.28;;;8.90;100.00
11413;BME280;5762;43.256;26.960;2023-04-27T02:37:01;99549.72;;;8.89;100.00
11413;BME280;5762;43.256;26.960;2023-04-27T02:39:30;99546.25;;;8.86;100.00
11413;BME280;5762;43.256;26.960;2023-04-27T02:41:58;99547.73;;;8.76;100.00
11413;BME280;5762;43.256;26.960;2023-04-27T02:44:28;99555.50;;;8.80;100.00
11413;BME280;5762;43.256;26.960;2023-04-27T02:46:57;99552.23;;;8.83;100.00
11413;BME280;5762;43.256;26.960;2023-04-27T02:49:25;99558.11;;;8.87;100.00
11413;BME280;5762;43.256;26.960;2023-04-27T02:51:55;99313.58;;;7.22;100.00
11413;BME280;5762;43.256;26.960;2023-04-27T02:54:24;99546.25;;;8.86;100.00
11413;BME280;5762;43.256;26.960;2023-04-27T02:56:53;99557.14;;;8.78;100.00
11413;BME280;5762;43.256;26.960;2023-04-27T02:59:21;99574.65;;;8.81;100.00
11413;BME280;5762;43.256;26.960;2023-04-27T03:01:49;99577.64;;;8.79;100.00
11413;BME280;5762;43.256;26.960;2023-04-27T03:04:18;99597.71;;;8.70;100.00
11413;BME280;5762;43.256;26.960;2023-04-27T03:06:46;99604.34;;;8.59;100.00
11413;BME280;5762;43.256;26.960;2023-04-27T03:09:15;99610.70;;;8.45;100.00
11413;BME280;5762;43.256;26.960;2023-04-27T03:11:43;99636.06;;;8.44;100.00
11413;BME280;5762;43.256;26.960;2023-04-27T03:14:12;99645.48;;;8.46;100.00
11413;BME280;5762;43.256;26.960;2023-04-27T03:16:41;99653.31;;;8.45;100.00
11413;BME280;5762;43.256;26.960;2023-04-27T03:19:10;99659.89;;;8.34;100.00
11413;BME280;5762;43.256;26.960;2023-04-27T03:21:39;99671.48;;;8.34;100.00
11413;BME280;5762;43.256;26.960;2023-04-27T03:24:07;99685.83;;;8.27;100.00
11413;BME280;5762;43.256;26.960;2023-04-27T03:26:35;99686.42;;;8.22;100.00
11413;BME280;5762;43.256;26.960;2023-04-27T03:29:04;99696.92;;;8.23;100.00
11413;BME280;5762;43.256;26.960;2023-04-27T03:31:33;99708.27;;;8.20;100.00
11413;BME280;5762;43.256;26.960;2023-04-27T03:34:01;99708.55;;;8.19;100.00
11413;BME280;5762;43.256;26.960;2023-04-27T03:36:30;99723.62;;;8.22;100.00
11413;BME280;5762;43.256;26.960;2023-04-27T03:38:59;99731.78;;;8.12;100.00
11413;BME280;5762;43.256;26.960;2023-04-27T03:41:28;99748.75;;;8.15;100.00
11413;BME280;5762;43.256;26.960;2023-04-27T03:43:57;99749.91;;;8.01;100.00
11413;BME280;5762;43.256;26.960;2023-04-27T03:46:26;99760.16;;;8.02;100.00
11413;BME280;5762;43.256;26.960;2023-04-27T03:48:55;99771.27;;;7.95;100.00
11413;BME280;5762;43.256;26.960;2023-04-27T03:51:24;99791.22;;;7.94;100.00
11413;BME280;5762;43.256;26.960;2023-04-27T03:53:52;99811.19;;;7.88;100.00
11413;BME280;5762;43.256;26.960;2023-04-27T03:56:20;99818.53;;;7.75;100.00
11413;BME280;5762;43.256;26.960;2023-04-27T03:58:48;99845.20;;;7.77;100.00
11413;BME280;5762;43.256;26.960;2023-04-27T04:01:20;99858.41;;;7.76;100.00
11413;BME280;5762;43.256;26.960;2023-04-27T04:03:48;99881.84;;;7.75;100.00
11413;BME280;5762;43.256;26.960;2023-04-27T04:06:17;99910.14;;;7.70;100.00
11413;BME280;5762;43.256;26.960;2023-04-27T04:08:46;99938.69;;;7.71;100.00
11413;BME280;5762;43.256;26.960;2023-04-27T04:11:18;99937.88;;;7.76;100.00
11413;BME280;5762;43.256;26.960;2023-04-27T04:13:47;99948.94;;;7.66;100.00
11413;BME280;5762;43.256;26.960;2023-04-27T04:16:16;99950.02;;;7.63;100.00
11413;BME280;5762;43.256;26.960;2023-04-27T04:18:44;99961.59;;;7.66;100.00
11413;BME280;5762;43.256;26.960;2023-04-27T04:21:13;99963.75;;;7.69;100.00
11413;BME280;5762;43.256;26.960;2023-04-27T04:23:42;99971.28;;;7.77;100.00
11413;BME280;5762;43.256;26.960;2023-04-27T04:26:10;99977.48;;;7.75;100.00
11413;BME280;5762;43.256;26.960;2023-04-27T04:28:39;99979.09;;;7.71;100.00
11413;BME280;5762;43.256;26.960;2023-04-27T04:31:08;99987.72;;;7.73;100.00
11413;BME280;5762;43.256;26.960;2023-04-27T04:33:36;100003.34;;;7.76;100.00
11413;BME280;5762;43.256;26.960;2023-04-27T04:36:05;99999.02;;;7.80;100.00
11413;BME280;5762;43.256;26.960;2023-04-27T04:38:33;100007.11;;;7.80;100.00
11413;BME280;5762;43.256;26.960;2023-04-27T04:41:03;100003.05;;;7.88;100.00
11413;BME280;5762;43.256;26.960;2023-04-27T04:43:32;99994.96;;;7.90;100.00
11413;BME280;5762;43.256;26.960;2023-04-27T04:46:01;99979.28;;;7.97;100.00
11413;BME280;5762;43.256;26.960;2023-04-27T04:48:30;99962.08;;;7.93;100.00
11413;BME280;5762;43.256;26.960;2023-04-27T04:50:59;99961.73;;;8.07;100.00
11413;BME280;5762;43.256;26.960;2023-04-27T04:53:28;99936.89;;;8.18;100.00
11413;BME280;5762;43.256;26.960;2023-04-27T04:56:06;99925.80;;;8.25;100.00
11413;BME280;5762;43.256;26.960;2023-04-27T04:58:26;99908.83;;;8.24;100.00
11413;BME280;5762;43.256;26.960;2023-04-27T05:00:55;99907.14;;;8.36;100.00
11413;BME280;5762;43.256;26.960;2023-04-27T05:03:24;99915.70;;;8.48;100.00
11413;BME280;5762;43.256;26.960;2023-04-27T05:05:53;99902.50;;;8.47;100.00
11413;BME280;5762;43.256;26.960;2023-04-27T05:08:21;99901.89;;;8.57;100.00
11413;BME280;5762;43.256;26.960;2023-04-27T05:10:51;99887.85;;;8.60;100.00
11413;BME280;5762;43.256;26.960;2023-04-27T05:13:20;99880.02;;;8.61;100.00
11413;BME280;5762;43.256;26.960;2023-04-27T05:15:50;99864.09;;;8.62;100.00
11413;BME280;5762;43.256;26.960;2023-04-27T05:18:19;99851.34;;;8.68;100.00
11413;BME280;5762;43.256;26.960;2023-04-27T05:20:47;99874.46;;;8.79;100.00
11413;BME280;5762;43.256;26.960;2023-04-27T05:23:15;99852.34;;;8.77;100.00
11413;BME280;5762;43.256;26.960;2023-04-27T05:25:44;99817.34;;;8.69;100.00
11413;BME280;5762;43.256;26.960;2023-04-27T05:28:13;99811.05;;;8.79;100.00
11413;BME280;5762;43.256;26.960;2023-04-27T05:30:42;99796.70;;;8.84;100.00
11413;BME280;5762;43.256;26.960;2023-04-27T05:33:10;99774.91;;;8.78;100.00
11413;BME280;5762;43.256;26.960;2023-04-27T05:35:38;99770.76;;;8.88;100.00
11413;BME280;5762;43.256;26.960;2023-04-27T05:38:07;99758.88;;;8.89;100.00
11413;BME280;5762;43.256;26.960;2023-04-27T05:40:36;99754.28;;;8.89;100.00
11413;BME280;5762;43.256;26.960;2023-04-27T05:43:05;99744.23;;;8.95;100.00
11413;BME280;5762;43.256;26.960;2023-04-27T05:45:37;99741.53;;;8.95;100.00
11413;BME280;5762;43.256;26.960;2023-04-27T05:48:03;99738.38;;;9.09;100.00
11413;BME280;5762;43.256;26.960;2023-04-27T05:50:32;99733.84;;;9.04;100.00
11413;BME280;5762;43.256;26.960;2023-04-27T05:53:01;99733.67;;;9.20;100.00
11413;BME280;5762;43.256;26.960;2023-04-27T05:55:30;99721.55;;;9.17;100.00
11413;BME280;5762;43.256;26.960;2023-04-27T05:57:59;99714.74;;;9.22;100.00
11413;BME280;5762;43.256;26.960;2023-04-27T06:00:28;99693.59;;;9.29;100.00
11413;BME280;5762;43.256;26.960;2023-04-27T06:03:00;99448.91;;;7.78;100.00
11413;BME280;5762;43.256;26.960;2023-04-27T06:05:29;99685.58;;;9.40;100.00
11413;BME280;5762;43.256;26.960;2023-04-27T06:07:58;99692.11;;;9.37;100.00
11413;BME280;5762;43.256;26.960;2023-04-27T06:10:27;99675.17;;;9.34;100.00
11413;BME280;5762;43.256;26.960;2023-04-27T06:12:56;99676.25;;;9.52;100.00
11413;BME280;5762;43.256;26.960;2023-04-27T06:15:25;99661.75;;;9.45;100.00
11413;BME280;5762;43.256;26.960;2023-04-27T06:17:54;99657.08;;;9.51;100.00
11413;BME280;5762;43.256;26.960;2023-04-27T06:20:22;99652.27;;;9.48;100.00
11413;BME280;5762;43.256;26.960;2023-04-27T06:22:50;99648.21;;;9.48;100.00
11413;BME280;5762;43.256;26.960;2023-04-27T06:25:19;99639.38;;;9.61;100.00
11413;BME280;5762;43.256;26.960;2023-04-27T06:27:47;99645.80;;;9.65;100.00
11413;BME280;5762;43.256;26.960;2023-04-27T06:30:15;99650.44;;;9.78;100.00
11413;BME280;5762;43.256;26.960;2023-04-27T06:32:44;99639.29;;;9.82;100.00
11413;BME280;5762;43.256;26.960;2023-04-27T06:35:12;99622.48;;;9.85;100.00
11413;BME280;5762;43.256;26.960;2023-04-27T06:37:41;99620.41;;;9.80;100.00
11413;BME280;5762;43.256;26.960;2023-04-27T06:40:10;99604.95;;;9.83;100.00
11413;BME280;5762;43.256;26.960;2023-04-27T06:42:39;99608.29;;;9.77;100.00
11413;BME280;5762;43.256;26.960;2023-04-27T06:45:08;99607.02;;;9.72;100.00
11413;BME280;5762;43.256;26.960;2023-04-27T06:47:36;99602.42;;;9.72;100.00
11413;BME280;5762;43.256;26.960;2023-04-27T06:50:04;99592.84;;;9.80;100.00
11413;BME280;5762;43.256;26.960;2023-04-27T06:52:33;99585.06;;;9.76;100.00
11413;BME280;5762;43.256;26.960;2023-04-27T06:55:02;99580.17;;;9.78;100.00
11413;BME280;5762;43.256;26.960;2023-04-27T06:57:30;99579.27;;;9.69;100.00
11413;BME280;5762;43.256;26.960;2023-04-27T06:59:59;99574.11;;;9.70;100.00
11413;BME280;5762;43.256;26.960;2023-04-27T07:02:27;99581.56;;;9.75;100.00
11413;BME280;5762;43.256;26.960;2023-04-27T07:04:55;99577.63;;;9.84;100.00
11413;BME280;5762;43.256;26.960;2023-04-27T07:07:24;99583.25;;;9.88;100.00
11413;BME280;5762;43.256;26.960;2023-04-27T07:09:53;99579.75;;;9.87;100.00
11413;BME280;5762;43.256;26.960;2023-04-27T07:12:22;99574.59;;;9.88;100.00
11413;BME280;5762;43.256;26.960;2023-04-27T07:14:50;99570.06;;;10.00;100.00
11413;BME280;5762;43.256;26.960;2023-04-27T07:17:19;99578.39;;;10.03;100.00
11413;BME280;5762;43.256;26.960;2023-04-27T07:19:47;99560.01;;;10.03;100.00
11413;BME280;5762;43.256;26.960;2023-04-27T07:22:16;99561.06;;;10.04;100.00
11413;BME280;5762;43.256;26.960;2023-04-27T07:24:45;99547.67;;;10.11;100.00
11413;BME280;5762;43.256;26.960;2023-04-27T07:27:14;99530.45;;;10.06;100.00
11413;BME280;5762;43.256;26.960;2023-04-27T07:29:43;99525.15;;;10.15;100.00
11413;BME280;5762;43.256;26.960;2023-04-27T07:32:11;99518.59;;;10.46;100.00
11413;BME280;5762;43.256;26.960;2023-04-27T07:34:40;99515.53;;;10.50;100.00
11413;BME280;5762;43.256;26.960;2023-04-27T07:37:09;99508.63;;;10.44;100.00
11413;BME280;5762;43.256;26.960;2023-04-27T07:39:37;99511.52;;;10.48;100.00
11413;BME280;5762;43.256;26.960;2023-04-27T07:42:06;99509.22;;;10.55;100.00
11413;BME280;5762;43.256;26.960;2023-04-27T07:44:35;99492.80;;;10.87;100.00
11413;BME280;5762;43.256;26.960;2023-04-27T07:47:04;99494.70;;;10.87;100.00
11413;BME280;5762;43.256;26.960;2023-04-27T07:49:33;99497.78;;;10.94;100.00
11413;BME280;5762;43.256;26.960;2023-04-27T07:52:01;99492.88;;;11.07;100.00
11413;BME280;5762;43.256;26.960;2023-04-27T07:54:30;99486.90;;;11.41;100.00
11413;BME280;5762;43.256;26.960;2023-04-27T07:56:58;99484.25;;;11.38;100.00
11413;BME280;5762;43.256;26.960;2023-04-27T07:59:29;99481.17;;;11.20;100.00
11413;BME280;5762;43.256;26.960;2023-04-27T08:01:57;99497.09;;;11.44;100.00
11413;BME280;5762;43.256;26.960;2023-04-27T08:04:25;99475.75;;;11.20;100.00
11413;BME280;5762;43.256;26.960;2023-04-27T08:06:54;99482.09;;;11.38;100.00
11413;BME280;5762;43.256;26.960;2023-04-27T08:09:23;99487.47;;;11.60;100.00
11413;BME280;5762;43.256;26.960;2023-04-27T08:11:52;99486.30;;;11.64;100.00
11413;BME280;5762;43.256;26.960;2023-04-27T08:14:21;99478.11;;;11.78;100.00
11413;BME280;5762;43.256;26.960;2023-04-27T08:16:53;99477.58;;;12.06;100.00
11413;BME280;5762;43.256;26.960;2023-04-27T08:19:22;99470.78;;;11.78;100.00
11413;BME280;5762;43.256;26.960;2023-04-27T08:21:50;99481.61;;;11.67;100.00
11413;BME280;5762;43.256;26.960;2023-04-27T08:24:19;99475.31;;;12.00;100.00
11413;BME280;5762;43.256;26.960;2023-04-27T08:26:48;99486.03;;;12.14;100.00
11413;BME280;5762;43.256;26.960;2023-04-27T08:29:16;99486.55;;;11.65;100.00
11413;BME280;5762;43.256;26.960;2023-04-27T08:31:45;99480.02;;;11.77;100.00
11413;BME280;5762;43.256;26.960;2023-04-27T08:34:14;99479.56;;;12.03;100.00
11413;BME280;5762;43.256;26.960;2023-04-27T08:36:43;99487.80;;;12.10;100.00
11413;BME280;5762;43.256;26.960;2023-04-27T08:39:12;99491.17;;;11.95;100.00
11413;BME280;5762;43.256;26.960;2023-04-27T08:41:41;99481.27;;;12.19;100.00
11413;BME280;5762;43.256;26.960;2023-04-27T08:44:10;99477.09;;;12.50;100.00
11413;BME280;5762;43.256;26.960;2023-04-27T08:46:39;99483.60;;;12.69;100.00
11413;BME280;5762;43.256;26.960;2023-04-27T08:49:08;99485.11;;;12.90;100.00
11413;BME280;5762;43.256;26.960;2023-04-27T08:51:37;99482.33;;;12.75;100.00
11413;BME280;5762;43.256;26.960;2023-04-27T08:54:07;99473.22;;;12.88;100.00
11413;BME280;5762;43.256;26.960;2023-04-27T08:56:36;99468.98;;;13.02;100.00
11413;BME280;5762;43.256;26.960;2023-04-27T08:59:11;99478.25;;;13.09;100.00
11413;BME280;5762;43.256;26.960;2023-04-27T09:01:34;99457.55;;;13.11;100.00
11413;BME280;5762;43.256;26.960;2023-04-27T09:04:03;99466.83;;;12.93;100.00
11413;BME280;5762;43.256;26.960;2023-04-27T09:06:33;99473.23;;;12.71;100.00
11413;BME280;5762;43.256;26.960;2023-04-27T09:09:01;99463.86;;;12.83;100.00
11413;BME280;5762;43.256;26.960;2023-04-27T09:11:31;99474.81;;;13.24;100.00
11413;BME280;5762;43.256;26.960;2023-04-27T09:14:01;99470.34;;;12.85;100.00
11413;BME280;5762;43.256;26.960;2023-04-27T09:16:29;99468.27;;;12.99;100.00
11413;BME280;5762;43.256;26.960;2023-04-27T09:18:59;99463.39;;;12.98;100.00
11413;BME280;5762;43.256;26.960;2023-04-27T09:21:28;99495.42;;;12.90;100.00
11413;BME280;5762;43.256;26.960;2023-04-27T09:24:08;99460.59;;;12.84;100.00
11413;BME280;5762;43.256;26.960;2023-04-27T09:26:28;99462.75;;;13.10;100.00
11413;BME280;5762;43.256;26.960;2023-04-27T09:28:57;99459.23;;;13.01;100.00
11413;BME280;5762;43.256;26.960;2023-04-27T09:31:33;99459.95;;;13.13;100.00
11413;BME280;5762;43.256;26.960;2023-04-27T09:34:02;99457.31;;;12.93;100.00
11413;BME280;5762;43.256;26.960;2023-04-27T09:36:30;99467.15;;;13.08;100.00
11413;BME280;5762;43.256;26.960;2023-04-27T09:39:01;99455.88;;;12.95;100.00
11413;BME280;5762;43.256;26.960;2023-04-27T09:41:27;99457.64;;;13.00;100.00
11413;BME280;5762;43.256;26.960;2023-04-27T09:43:56;99455.88;;;12.95;100.00
11413;BME280;5762;43.256;26.960;2023-04-27T09:46:25;99450.37;;;13.06;100.00
11413;BME280;5762;43.256;26.960;2023-04-27T09:48:55;99458.11;;;13.19;100.00
11413;BME280;5762;43.256;26.960;2023-04-27T09:51:25;99456.44;;;12.95;100.00
11413;BME280;5762;43.256;26.960;2023-04-27T09:53:54;99462.11;;;12.96;100.00
11413;BME280;5762;43.256;26.960;2023-04-27T09:56:33;99453.42;;;12.70;100.00
11413;BME280;5762;43.256;26.960;2023-04-27T09:59:04;99449.27;;;12.82;100.00
11413;BME280;5762;43.256;26.960;2023-04-27T10:07:05;99456.12;;;12.62;100.00
11413;BME280;5762;43.256;26.960;2023-04-27T10:09:39;99457.96;;;12.47;100.00
11413;BME280;5762;43.256;26.960;2023-04-27T10:12:19;99457.23;;;12.44;100.00
11413;BME280;5762;43.256;26.960;2023-04-27T10:14:48;99462.98;;;12.42;100.00
11413;BME280;5762;43.256;26.960;2023-04-27T10:17:17;99466.98;;;12.45;100.00
11413;BME280;5762;43.256;26.960;2023-04-27T10:19:59;99467.22;;;12.46;100.00
11413;BME280;5762;43.256;26.960;2023-04-27T10:22:41;99468.35;;;12.70;100.00
11413;BME280;5762;43.256;26.960;2023-04-27T10:25:24;99468.75;;;12.66;100.00
11413;BME280;5762;43.256;26.960;2023-04-27T10:27:53;99472.44;;;12.79;100.00
11413;BME280;5762;43.256;26.960;2023-04-27T10:30:22;99478.56;;;12.82;100.00
11413;BME280;5762;43.256;26.960;2023-04-27T10:32:52;99460.91;;;12.91;100.00
11413;BME280;5762;43.256;26.960;2023-04-27T10:35:31;99469.06;;;12.99;100.00
11413;BME280;5762;43.256;26.960;2023-04-27T10:37:51;99471.94;;;13.03;100.00
11413;BME280;5762;43.256;26.960;2023-04-27T10:40:19;99470.81;;;12.87;100.00
11413;BME280;5762;43.256;26.960;2023-04-27T10:42:48;99479.12;;;12.90;100.00
11413;BME280;5762;43.256;26.960;2023-04-27T10:45:26;99478.33;;;12.98;100.00
11413;BME280;5762;43.256;26.960;2023-04-27T10:47:56;99481.37;;;12.97;100.00
11413;BME280;5762;43.256;26.960;2023-04-27T10:50:24;99476.41;;;12.90;100.00
11413;BME280;5762;43.256;26.960;2023-04-27T10:52:58;99478.34;;;13.07;100.00
11413;BME280;5762;43.256;26.960;2023-04-27T10:55:22;99475.94;;;13.14;100.00
11413;BME280;5762;43.256;26.960;2023-04-27T10:57:52;99473.62;;;13.19;100.00
11413;BME280;5762;43.256;26.960;2023-04-27T11:00:24;99474.56;;;13.31;100.00
11413;BME280;5762;43.256;26.960;2023-04-27T11:02:53;99466.09;;;13.24;100.00
11413;BME280;5762;43.256;26.960;2023-04-27T11:05:26;99463.30;;;13.27;100.00
11413;BME280;5762;43.256;26.960;2023-04-27T11:07:52;99470.81;;;13.21;100.00
11413;BME280;5762;43.256;26.960;2023-04-27T11:10:20;99474.87;;;13.38;100.00
11413;BME280;5762;43.256;26.960;2023-04-27T11:12:49;99463.70;;;13.31;100.00
11413;BME280;5762;43.256;26.960;2023-04-27T11:15:18;99475.13;;;13.31;100.00
11413;BME280;5762;43.256;26.960;2023-04-27T11:17:47;99464.22;;;13.16;100.00
11413;BME280;5762;43.256;26.960;2023-04-27T11:20:23;99472.10;;;13.06;100.00
11413;BME280;5762;43.256;26.960;2023-04-27T11:22:52;99473.94;;;13.00;100.00
11413;BME280;5762;43.256;26.960;2023-04-27T11:25:30;99470.27;;;12.96;100.00
11413;BME280;5762;43.256;26.960;2023-04-27T11:27:58;99476.02;;;12.94;100.00
11413;BME280;5762;43.256;26.960;2023-04-27T11:30:27;99473.38;;;12.92;100.00
11413;BME280;5762;43.256;26.960;2023-04-27T11:32:56;99475.71;;;12.79;100.00
11413;BME280;5762;43.256;26.960;2023-04-27T11:35:32;99484.64;;;12.88;100.00
11413;BME280;5762;43.256;26.960;2023-04-27T11:38:01;99478.56;;;12.82;100.00
11413;BME280;5762;43.256;26.960;2023-04-27T11:40:30;99478.24;;;12.84;100.00
11413;BME280;5762;43.256;26.960;2023-04-27T11:42:59;99488.55;;;12.84;100.00
11413;BME280;5762;43.256;26.960;2023-04-27T11:45:28;99489.77;;;12.81;100.00
11413;BME280;5762;43.256;26.960;2023-04-27T11:47:57;99485.77;;;12.69;100.00
11413;BME280;5762;43.256;26.960;2023-04-27T11:50:26;99482.73;;;12.71;100.00
11413;BME280;5762;43.256;26.960;2023-04-27T11:52:54;99484.22;;;12.57;100.00
11413;BME280;5762;43.256;26.960;2023-04-27T11:55:23;99487.56;;;12.54;100.00
11413;BME280;5762;43.256;26.960;2023-04-27T11:57:55;99484.53;;;12.56;100.00
11413;BME280;5762;43.256;26.960;2023-04-27T12:00:21;99488.92;;;12.54;100.00
11413;BME280;5762;43.256;26.960;2023-04-27T12:02:50;99492.69;;;12.47;100.00
11413;BME280;5762;43.256;26.960;2023-04-27T12:05:19;99498.77;;;12.61;100.00
11413;BME280;5762;43.256;26.960;2023-04-27T12:07:47;99506.38;;;12.79;100.00
11413;BME280;5762;43.256;26.960;2023-04-27T12:10:15;99507.08;;;12.82;100.00
11413;BME280;5762;43.256;26.960;2023-04-27T12:12:44;99507.50;;;12.78;100.00
11413;BME280;5762;43.256;26.960;2023-04-27T12:15:13;99499.89;;;12.86;100.00
11413;BME280;5762;43.256;26.960;2023-04-27T12:17:42;99508.44;;;12.82;100.00
11413;BME280;5762;43.256;26.960;2023-04-27T12:20:11;99511.64;;;12.75;100.00
11413;BME280;5762;43.256;26.960;2023-04-27T12:22:40;99507.30;;;12.57;100.00
11413;BME280;5762;43.256;26.960;2023-04-27T12:25:09;99511.15;;;12.82;100.00
11413;BME280;5762;43.256;26.960;2023-04-27T12:27:38;99511.73;;;12.82;100.00
11413;BME280;5762;43.256;26.960;2023-04-27T12:30:06;99511.88;;;12.94;100.00
11413;BME280;5762;43.256;26.960;2023-04-27T12:32:35;99505.58;;;12.96;100.00
11413;BME280;5762;43.256;26.960;2023-04-27T12:35:05;99501.81;;;12.94;100.00
11413;BME280;5762;43.256;26.960;2023-04-27T12:37:33;99495.27;;;13.04;100.00
11413;BME280;5762;43.256;26.960;2023-04-27T12:40:02;99497.43;;;13.04;100.00
11413;BME280;5762;43.256;26.960;2023-04-27T12:42:33;99495.91;;;13.01;100.00
11413;BME280;5762;43.256;26.960;2023-04-27T12:45:02;99494.95;;;13.05;100.00
11413;BME280;5762;43.256;26.960;2023-04-27T12:47:30;99493.67;;;12.94;100.00
11413;BME280;5762;43.256;26.960;2023-04-27T12:50:00;99500.79;;;13.10;100.00
11413;BME280;5762;43.256;26.960;2023-04-27T12:52:29;99495.80;;;13.79;100.00
11413;BME280;5762;43.256;26.960;2023-04-27T12:54:58;99493.88;;;14.17;100.00
11413;BME280;5762;43.256;26.960;2023-04-27T12:57:26;99499.17;;;14.28;100.00
11413;BME280;5762;43.256;26.960;2023-04-27T12:59:55;99498.37;;;14.28;100.00
11413;BME280;5762;43.256;26.960;2023-04-27T13:02:25;99492.51;;;14.61;100.00
11413;BME280;5762;43.256;26.960;2023-04-27T13:04:54;99495.31;;;14.73;100.00
11413;BME280;5762;43.256;26.960;2023-04-27T13:07:22;99491.62;;;15.05;100.00
11413;BME280;5762;43.256;26.960;2023-04-27T13:09:51;99482.78;;;15.08;100.00
11413;BME280;5762;43.256;26.960;2023-04-27T13:12:20;99492.55;;;15.09;100.00
11413;BME280;5762;43.256;26.960;2023-04-27T13:14:49;99481.21;;;14.92;100.00